sensor_id;sensor_type;location;lat;lon;timestamp;temperature;humidity
6114;DHT22;3087;48.392;10.836;2022-12-16T00:02:47;1.80;99.90
6114;DHT22;3087;48.392;10.836;2022-12-16T00:05:12;1.80;99.90
6114;DHT22;3087;48.392;10.836;2022-12-16T00:07:38;1.80;99.90
6114;DHT22;3087;48.392;10.836;2022-12-16T00:10:04;1.90;99.90
6114;DHT22;3087;48.392;10.836;2022-12-16T00:12:29;1.90;99.90
6114;DHT22;3087;48.392;10.836;2022-12-16T00:17:21;1.90;99.90
6114;DHT22;3087;48.392;10.836;2022-12-16T00:19:46;1.90;99.90
6114;DHT22;3087;48.392;10.836;2022-12-16T00:24:38;1.90;99.90
6114;DHT22;3087;48.392;10.836;2022-12-16T00:27:03;1.80;99.90
6114;DHT22;3087;48.392;10.836;2022-12-16T00:31:55;1.80;99.90
6114;DHT22;3087;48.392;10.836;2022-12-16T00:34:20;1.80;99.90
6114;DHT22;3087;48.392;10.836;2022-12-16T00:36:46;1.70;99.90
6114;DHT22;3087;48.392;10.836;2022-12-16T00:39:12;1.70;99.90
6114;DHT22;3087;48.392;10.836;2022-12-16T00:41:37;1.80;99.90
6114;DHT22;3087;48.392;10.836;2022-12-16T00:44:03;1.80;99.90
6114;DHT22;3087;48.392;10.836;2022-12-16T00:48:55;1.90;99.90
6114;DHT22;3087;48.392;10.836;2022-12-16T00:51:20;2.00;99.90
6114;DHT22;3087;48.392;10.836;2022-12-16T00:53:46;2.00;99.90
6114;DHT22;3087;48.392;10.836;2022-12-16T00:56:12;2.00;99.90
6114;DHT22;3087;48.392;10.836;2022-12-16T00:58:39;2.00;99.90
6114;DHT22;3087;48.392;10.836;2022-12-16T01:01:06;2.10;99.90
6114;DHT22;3087;48.392;10.836;2022-12-16T01:03:32;2.10;99.90
6114;DHT22;3087;48.392;10.836;2022-12-16T01:08:24;2.10;99.90
6114;DHT22;3087;48.392;10.836;2022-12-16T01:10:54;2.00;99.90
6114;DHT22;3087;48.392;10.836;2022-12-16T01:13:22;2.10;99.90
6114;DHT22;3087;48.392;10.836;2022-12-16T01:20:40;2.00;99.90
6114;DHT22;3087;48.392;10.836;2022-12-16T01:23:06;1.90;99.90
6114;DHT22;3087;48.392;10.836;2022-12-16T01:25:32;1.90;99.90
6114;DHT22;3087;48.392;10.836;2022-12-16T01:27:57;1.90;99.90
6114;DHT22;3087;48.392;10.836;2022-12-16T01:30:23;1.90;99.90
6114;DHT22;3087;48.392;10.836;2022-12-16T01:32:49;1.90;99.90
6114;DHT22;3087;48.392;10.836;2022-12-16T01:35:15;1.90;99.90
6114;DHT22;3087;48.392;10.836;2022-12-16T01:37:41;1.80;99.90
6114;DHT22;3087;48.392;10.836;2022-12-16T01:40:08;1.90;99.90
6114;DHT22;3087;48.392;10.836;2022-12-16T01:42:42;2.00;99.90
6114;DHT22;3087;48.392;10.836;2022-12-16T01:47:57;1.90;99.90
6114;DHT22;3087;48.392;10.836;2022-12-16T01:50:24;1.90;99.90
6114;DHT22;3087;48.392;10.836;2022-12-16T01:52:53;1.80;99.90
6114;DHT22;3087;48.392;10.836;2022-12-16T01:55:29;1.70;99.90
6114;DHT22;3087;48.392;10.836;2022-12-16T01:58:01;1.70;99.90
6114;DHT22;3087;48.392;10.836;2022-12-16T02:02:54;1.70;99.90
6114;DHT22;3087;48.392;10.836;2022-12-16T02:05:21;1.70;99.90
6114;DHT22;3087;48.392;10.836;2022-12-16T02:16:11;1.60;99.90
6114;DHT22;3087;48.392;10.836;2022-12-16T02:18:56;1.60;99.90
6114;DHT22;3087;48.392;10.836;2022-12-16T02:24:13;1.70;99.90
6114;DHT22;3087;48.392;10.836;2022-12-16T02:32:30;1.90;99.90
6114;DHT22;3087;48.392;10.836;2022-12-16T02:35:10;2.00;99.90
6114;DHT22;3087;48.392;10.836;2022-12-16T02:40:50;1.90;99.90
6114;DHT22;3087;48.392;10.836;2022-12-16T02:43:21;1.90;99.90
6114;DHT22;3087;48.392;10.836;2022-12-16T02:45:55;1.80;99.90
6114;DHT22;3087;48.392;10.836;2022-12-16T02:48:21;1.80;99.90
6114;DHT22;3087;48.392;10.836;2022-12-16T02:50:48;1.70;99.90
6114;DHT22;3087;48.392;10.836;2022-12-16T02:53:16;1.80;99.90
6114;DHT22;3087;48.392;10.836;2022-12-16T02:55:58;1.80;99.90
6114;DHT22;3087;48.392;10.836;2022-12-16T03:04:53;1.90;99.90
6114;DHT22;3087;48.392;10.836;2022-12-16T03:07:23;2.00;99.90
6114;DHT22;3087;48.392;10.836;2022-12-16T03:09:52;1.90;99.90
6114;DHT22;3087;48.392;10.836;2022-12-16T03:12:20;1.90;99.90
6114;DHT22;3087;48.392;10.836;2022-12-16T03:14:51;1.90;99.90
6114;DHT22;3087;48.392;10.836;2022-12-16T03:17:19;1.90;99.90
6114;DHT22;3087;48.392;10.836;2022-12-16T03:20:34;1.90;99.90
6114;DHT22;3087;48.392;10.836;2022-12-16T03:22:42;1.90;99.90
6114;DHT22;3087;48.392;10.836;2022-12-16T03:25:09;1.80;99.90
6114;DHT22;3087;48.392;10.836;2022-12-16T03:30:17;1.80;99.90
6114;DHT22;3087;48.392;10.836;2022-12-16T03:33:47;1.70;99.90
6114;DHT22;3087;48.392;10.836;2022-12-16T03:35:49;1.70;99.90
6114;DHT22;3087;48.392;10.836;2022-12-16T03:38:16;1.80;99.90
6114;DHT22;3087;48.392;10.836;2022-12-16T03:40:43;1.80;99.90
6114;DHT22;3087;48.392;10.836;2022-12-16T03:43:11;1.70;99.90
6114;DHT22;3087;48.392;10.836;2022-12-16T03:45:43;1.70;99.90
6114;DHT22;3087;48.392;10.836;2022-12-16T03:48:11;1.60;99.90
6114;DHT22;3087;48.392;10.836;2022-12-16T03:50:38;1.60;99.90
6114;DHT22;3087;48.392;10.836;2022-12-16T03:53:05;1.60;99.90
6114;DHT22;3087;48.392;10.836;2022-12-16T03:55:31;1.60;99.90
6114;DHT22;3087;48.392;10.836;2022-12-16T03:57:57;1.60;99.90
6114;DHT22;3087;48.392;10.836;2022-12-16T04:00:24;1.60;99.90
6114;DHT22;3087;48.392;10.836;2022-12-16T04:02:50;1.60;99.90
6114;DHT22;3087;48.392;10.836;2022-12-16T04:05:16;1.50;99.90
6114;DHT22;3087;48.392;10.836;2022-12-16T04:07:42;1.50;99.90
6114;DHT22;3087;48.392;10.836;2022-12-16T04:10:08;1.70;99.90
6114;DHT22;3087;48.392;10.836;2022-12-16T04:12:34;1.60;99.90
6114;DHT22;3087;48.392;10.836;2022-12-16T04:15:18;1.70;99.90
6114;DHT22;3087;48.392;10.836;2022-12-16T04:18:03;1.80;99.90
6114;DHT22;3087;48.392;10.836;2022-12-16T04:20:54;1.90;99.90
6114;DHT22;3087;48.392;10.836;2022-12-16T04:23:48;1.90;99.90
6114;DHT22;3087;48.392;10.836;2022-12-16T04:26:34;1.90;99.90
6114;DHT22;3087;48.392;10.836;2022-12-16T04:29:20;1.80;99.90
6114;DHT22;3087;48.392;10.836;2022-12-16T04:31:45;1.90;99.90
6114;DHT22;3087;48.392;10.836;2022-12-16T04:34:11;1.90;99.90
6114;DHT22;3087;48.392;10.836;2022-12-16T04:36:58;1.80;99.90
6114;DHT22;3087;48.392;10.836;2022-12-16T04:39:43;1.90;99.90
6114;DHT22;3087;48.392;10.836;2022-12-16T04:45:12;1.90;99.90
6114;DHT22;3087;48.392;10.836;2022-12-16T04:47:56;2.00;99.90
6114;DHT22;3087;48.392;10.836;2022-12-16T04:50:40;2.00;99.90
6114;DHT22;3087;48.392;10.836;2022-12-16T04:53:26;2.10;99.90
6114;DHT22;3087;48.392;10.836;2022-12-16T04:56:10;2.20;99.90
6114;DHT22;3087;48.392;10.836;2022-12-16T04:58:55;2.20;99.90
6114;DHT22;3087;48.392;10.836;2022-12-16T05:01:39;2.20;99.90
6114;DHT22;3087;48.392;10.836;2022-12-16T05:04:23;2.20;99.90
6114;DHT22;3087;48.392;10.836;2022-12-16T05:07:07;2.20;99.90
6114;DHT22;3087;48.392;10.836;2022-12-16T05:09:51;2.10;99.90
6114;DHT22;3087;48.392;10.836;2022-12-16T05:12:35;2.20;99.90
6114;DHT22;3087;48.392;10.836;2022-12-16T05:15:19;2.10;99.90
6114;DHT22;3087;48.392;10.836;2022-12-16T05:18:11;2.00;99.90
6114;DHT22;3087;48.392;10.836;2022-12-16T05:20:57;2.00;99.90
6114;DHT22;3087;48.392;10.836;2022-12-16T05:23:41;2.00;99.90
6114;DHT22;3087;48.392;10.836;2022-12-16T05:26:26;2.00;99.90
6114;DHT22;3087;48.392;10.836;2022-12-16T05:29:18;2.00;99.90
6114;DHT22;3087;48.392;10.836;2022-12-16T05:32:02;2.10;99.90
6114;DHT22;3087;48.392;10.836;2022-12-16T05:34:46;2.00;99.90
6114;DHT22;3087;48.392;10.836;2022-12-16T05:37:30;2.00;99.90
6114;DHT22;3087;48.392;10.836;2022-12-16T05:42:58;2.00;99.90
6114;DHT22;3087;48.392;10.836;2022-12-16T05:45:42;1.90;99.90
6114;DHT22;3087;48.392;10.836;2022-12-16T05:48:26;2.00;99.90
6114;DHT22;3087;48.392;10.836;2022-12-16T05:53:55;2.10;99.90
6114;DHT22;3087;48.392;10.836;2022-12-16T05:56:39;2.00;99.90
6114;DHT22;3087;48.392;10.836;2022-12-16T05:59:23;2.00;99.90
6114;DHT22;3087;48.392;10.836;2022-12-16T06:04:52;2.00;99.90
6114;DHT22;3087;48.392;10.836;2022-12-16T06:07:53;2.00;99.90
6114;DHT22;3087;48.392;10.836;2022-12-16T06:10:37;2.00;99.90
6114;DHT22;3087;48.392;10.836;2022-12-16T06:13:21;2.00;99.90
6114;DHT22;3087;48.392;10.836;2022-12-16T06:16:06;2.00;99.90
6114;DHT22;3087;48.392;10.836;2022-12-16T06:18:50;2.00;99.90
6114;DHT22;3087;48.392;10.836;2022-12-16T06:21:34;1.90;99.90
6114;DHT22;3087;48.392;10.836;2022-12-16T06:24:18;1.90;99.90
6114;DHT22;3087;48.392;10.836;2022-12-16T06:27:02;1.80;99.90
6114;DHT22;3087;48.392;10.836;2022-12-16T06:29:46;1.70;99.90
6114;DHT22;3087;48.392;10.836;2022-12-16T06:32:30;1.80;99.90
6114;DHT22;3087;48.392;10.836;2022-12-16T06:37:59;1.90;99.90
6114;DHT22;3087;48.392;10.836;2022-12-16T06:40:43;1.90;99.90
6114;DHT22;3087;48.392;10.836;2022-12-16T06:43:27;2.00;99.90
6114;DHT22;3087;48.392;10.836;2022-12-16T06:46:11;2.00;99.90
6114;DHT22;3087;48.392;10.836;2022-12-16T06:54:24;2.00;99.90
6114;DHT22;3087;48.392;10.836;2022-12-16T06:57:08;2.10;99.90
6114;DHT22;3087;48.392;10.836;2022-12-16T07:02:37;2.10;99.90
6114;DHT22;3087;48.392;10.836;2022-12-16T07:05:21;2.10;99.90
6114;DHT22;3087;48.392;10.836;2022-12-16T07:08:05;2.00;99.90
6114;DHT22;3087;48.392;10.836;2022-12-16T07:10:49;2.10;99.90
6114;DHT22;3087;48.392;10.836;2022-12-16T07:13:33;2.10;99.90
6114;DHT22;3087;48.392;10.836;2022-12-16T07:16:17;2.00;99.90
6114;DHT22;3087;48.392;10.836;2022-12-16T07:19:01;2.00;99.90
6114;DHT22;3087;48.392;10.836;2022-12-16T07:21:56;2.10;99.90
6114;DHT22;3087;48.392;10.836;2022-12-16T07:24:40;2.10;99.90
6114;DHT22;3087;48.392;10.836;2022-12-16T07:27:24;2.10;99.90
6114;DHT22;3087;48.392;10.836;2022-12-16T07:30:09;2.00;99.90
6114;DHT22;3087;48.392;10.836;2022-12-16T07:32:53;2.00;99.90
6114;DHT22;3087;48.392;10.836;2022-12-16T07:35:37;2.00;99.90
6114;DHT22;3087;48.392;10.836;2022-12-16T07:38:21;2.10;99.90
6114;DHT22;3087;48.392;10.836;2022-12-16T07:41:05;2.10;99.90
6114;DHT22;3087;48.392;10.836;2022-12-16T07:43:49;2.10;99.90
6114;DHT22;3087;48.392;10.836;2022-12-16T07:46:33;2.00;99.90
6114;DHT22;3087;48.392;10.836;2022-12-16T07:54:46;2.10;99.90
6114;DHT22;3087;48.392;10.836;2022-12-16T07:57:30;2.10;99.90
6114;DHT22;3087;48.392;10.836;2022-12-16T08:00:14;2.10;99.90
6114;DHT22;3087;48.392;10.836;2022-12-16T08:02:58;2.20;99.90
6114;DHT22;3087;48.392;10.836;2022-12-16T08:08:27;2.10;99.90
6114;DHT22;3087;48.392;10.836;2022-12-16T08:11:10;2.20;99.90
6114;DHT22;3087;48.392;10.836;2022-12-16T08:14:05;2.20;99.90
6114;DHT22;3087;48.392;10.836;2022-12-16T08:16:49;2.10;99.90
6114;DHT22;3087;48.392;10.836;2022-12-16T08:19:33;2.10;99.90
6114;DHT22;3087;48.392;10.836;2022-12-16T08:22:18;2.20;99.90
6114;DHT22;3087;48.392;10.836;2022-12-16T08:25:02;2.20;99.90
6114;DHT22;3087;48.392;10.836;2022-12-16T08:27:46;2.20;99.90
6114;DHT22;3087;48.392;10.836;2022-12-16T08:33:20;2.20;99.90
6114;DHT22;3087;48.392;10.836;2022-12-16T08:36:05;2.20;99.90
6114;DHT22;3087;48.392;10.836;2022-12-16T08:41:34;2.30;99.90
6114;DHT22;3087;48.392;10.836;2022-12-16T08:44:18;2.30;99.90
6114;DHT22;3087;48.392;10.836;2022-12-16T08:49:47;2.30;99.90
6114;DHT22;3087;48.392;10.836;2022-12-16T08:52:39;2.30;99.90
6114;DHT22;3087;48.392;10.836;2022-12-16T08:55:23;2.20;99.90
6114;DHT22;3087;48.392;10.836;2022-12-16T08:58:07;2.20;99.90
6114;DHT22;3087;48.392;10.836;2022-12-16T09:00:51;2.30;99.90
6114;DHT22;3087;48.392;10.836;2022-12-16T09:06:20;2.20;99.90
6114;DHT22;3087;48.392;10.836;2022-12-16T09:09:04;2.10;99.90
6114;DHT22;3087;48.392;10.836;2022-12-16T09:11:49;2.20;99.90
6114;DHT22;3087;48.392;10.836;2022-12-16T09:14:33;2.20;99.90
6114;DHT22;3087;48.392;10.836;2022-12-16T09:17:17;2.30;99.90
6114;DHT22;3087;48.392;10.836;2022-12-16T09:22:45;2.30;99.90
6114;DHT22;3087;48.392;10.836;2022-12-16T09:25:29;2.40;99.90
6114;DHT22;3087;48.392;10.836;2022-12-16T09:28:13;2.40;99.90
6114;DHT22;3087;48.392;10.836;2022-12-16T09:30:57;2.40;99.90
6114;DHT22;3087;48.392;10.836;2022-12-16T09:36:26;2.70;99.90
6114;DHT22;3087;48.392;10.836;2022-12-16T09:39:10;2.40;99.90
6114;DHT22;3087;48.392;10.836;2022-12-16T09:42:04;2.40;99.90
6114;DHT22;3087;48.392;10.836;2022-12-16T09:48:40;2.40;99.90
6114;DHT22;3087;48.392;10.836;2022-12-16T09:51:05;2.30;99.90
6114;DHT22;3087;48.392;10.836;2022-12-16T09:53:51;2.30;99.90
6114;DHT22;3087;48.392;10.836;2022-12-16T09:56:37;2.20;99.90
6114;DHT22;3087;48.392;10.836;2022-12-16T09:59:26;2.10;99.90
6114;DHT22;3087;48.392;10.836;2022-12-16T10:02:13;2.10;99.90
6114;DHT22;3087;48.392;10.836;2022-12-16T10:04:59;2.10;99.90
6114;DHT22;3087;48.392;10.836;2022-12-16T10:08:40;2.00;99.90
6114;DHT22;3087;48.392;10.836;2022-12-16T10:14:19;1.80;99.90
6114;DHT22;3087;48.392;10.836;2022-12-16T10:17:11;1.80;99.90
6114;DHT22;3087;48.392;10.836;2022-12-16T10:23:49;1.90;99.90
6114;DHT22;3087;48.392;10.836;2022-12-16T10:26:50;2.00;99.90
6114;DHT22;3087;48.392;10.836;2022-12-16T10:29:41;2.00;99.90
6114;DHT22;3087;48.392;10.836;2022-12-16T10:32:37;2.10;99.90
6114;DHT22;3087;48.392;10.836;2022-12-16T10:35:27;2.20;99.90
6114;DHT22;3087;48.392;10.836;2022-12-16T10:38:21;2.10;99.90
6114;DHT22;3087;48.392;10.836;2022-12-16T10:41:07;2.10;99.90
6114;DHT22;3087;48.392;10.836;2022-12-16T10:43:53;2.20;99.90
6114;DHT22;3087;48.392;10.836;2022-12-16T10:46:38;2.20;99.90
6114;DHT22;3087;48.392;10.836;2022-12-16T10:49:22;2.20;99.90
6114;DHT22;3087;48.392;10.836;2022-12-16T10:52:10;2.20;99.90
6114;DHT22;3087;48.392;10.836;2022-12-16T10:58:28;2.10;99.90
6114;DHT22;3087;48.392;10.836;2022-12-16T11:01:25;2.20;99.90
6114;DHT22;3087;48.392;10.836;2022-12-16T11:04:42;2.20;99.90
6114;DHT22;3087;48.392;10.836;2022-12-16T11:07:31;2.20;99.90
6114;DHT22;3087;48.392;10.836;2022-12-16T11:16:06;2.30;99.90
6114;DHT22;3087;48.392;10.836;2022-12-16T11:18:52;2.30;99.90
6114;DHT22;3087;48.392;10.836;2022-12-16T11:21:36;2.20;99.90
6114;DHT22;3087;48.392;10.836;2022-12-16T11:24:21;2.20;99.90
6114;DHT22;3087;48.392;10.836;2022-12-16T11:27:13;2.30;99.90
6114;DHT22;3087;48.392;10.836;2022-12-16T11:30:00;2.30;99.90
6114;DHT22;3087;48.392;10.836;2022-12-16T11:32:50;2.20;99.90
6114;DHT22;3087;48.392;10.836;2022-12-16T11:35:42;2.30;99.90
6114;DHT22;3087;48.392;10.836;2022-12-16T11:38:46;2.20;99.90
6114;DHT22;3087;48.392;10.836;2022-12-16T11:41:52;2.30;99.90
6114;DHT22;3087;48.392;10.836;2022-12-16T11:44:46;2.20;99.90
6114;DHT22;3087;48.392;10.836;2022-12-16T11:50:17;2.20;99.90
6114;DHT22;3087;48.392;10.836;2022-12-16T11:53:02;2.20;99.90
6114;DHT22;3087;48.392;10.836;2022-12-16T11:55:51;2.30;99.90
6114;DHT22;3087;48.392;10.836;2022-12-16T11:58:45;2.20;99.90
6114;DHT22;3087;48.392;10.836;2022-12-16T12:01:36;2.30;99.90
6114;DHT22;3087;48.392;10.836;2022-12-16T12:04:23;2.30;99.90
6114;DHT22;3087;48.392;10.836;2022-12-16T12:13:10;2.70;99.90
6114;DHT22;3087;48.392;10.836;2022-12-16T12:16:05;2.90;99.90
6114;DHT22;3087;48.392;10.836;2022-12-16T12:22:11;3.20;99.90
6114;DHT22;3087;48.392;10.836;2022-12-16T12:25:11;3.20;99.90
6114;DHT22;3087;48.392;10.836;2022-12-16T12:42:53;2.70;99.90
6114;DHT22;3087;48.392;10.836;2022-12-16T12:48:48;2.60;99.90
6114;DHT22;3087;48.392;10.836;2022-12-16T12:52:00;2.60;99.90
6114;DHT22;3087;48.392;10.836;2022-12-16T12:57:38;2.70;99.90
6114;DHT22;3087;48.392;10.836;2022-12-16T13:00:26;2.70;99.90
6114;DHT22;3087;48.392;10.836;2022-12-16T13:06:17;2.70;99.90
6114;DHT22;3087;48.392;10.836;2022-12-16T13:09:02;2.80;99.90
6114;DHT22;3087;48.392;10.836;2022-12-16T13:20:39;2.70;99.90
6114;DHT22;3087;48.392;10.836;2022-12-16T13:26:13;2.60;99.90
6114;DHT22;3087;48.392;10.836;2022-12-16T13:29:23;2.60;99.90
6114;DHT22;3087;48.392;10.836;2022-12-16T13:38:04;2.50;99.90
6114;DHT22;3087;48.392;10.836;2022-12-16T13:43:56;2.50;99.90
6114;DHT22;3087;48.392;10.836;2022-12-16T13:46:46;2.60;99.90
6114;DHT22;3087;48.392;10.836;2022-12-16T13:49:51;2.50;99.90
6114;DHT22;3087;48.392;10.836;2022-12-16T13:52:52;2.60;99.90
6114;DHT22;3087;48.392;10.836;2022-12-16T13:58:49;2.50;99.90
6114;DHT22;3087;48.392;10.836;2022-12-16T14:01:46;2.50;99.90
6114;DHT22;3087;48.392;10.836;2022-12-16T14:07:24;2.60;99.90
6114;DHT22;3087;48.392;10.836;2022-12-16T14:13:14;2.60;99.90
6114;DHT22;3087;48.392;10.836;2022-12-16T14:16:01;2.60;99.90
6114;DHT22;3087;48.392;10.836;2022-12-16T14:19:01;2.50;99.90
6114;DHT22;3087;48.392;10.836;2022-12-16T14:24:41;2.50;99.90
6114;DHT22;3087;48.392;10.836;2022-12-16T14:30:19;2.60;99.90
6114;DHT22;3087;48.392;10.836;2022-12-16T14:36:25;2.60;99.90
6114;DHT22;3087;48.392;10.836;2022-12-16T14:39:12;2.10;99.90
6114;DHT22;3087;48.392;10.836;2022-12-16T14:41:57;2.90;99.90
6114;DHT22;3087;48.392;10.836;2022-12-16T14:44:45;3.10;99.90
6114;DHT22;3087;48.392;10.836;2022-12-16T14:47:30;3.00;99.90
6114;DHT22;3087;48.392;10.836;2022-12-16T14:50:28;2.90;99.90
6114;DHT22;3087;48.392;10.836;2022-12-16T14:53:21;2.80;99.90
6114;DHT22;3087;48.392;10.836;2022-12-16T14:56:19;2.70;99.90
6114;DHT22;3087;48.392;10.836;2022-12-16T14:59:18;2.60;99.90
6114;DHT22;3087;48.392;10.836;2022-12-16T15:04:53;2.50;99.90
6114;DHT22;3087;48.392;10.836;2022-12-16T15:07:38;2.50;99.90
6114;DHT22;3087;48.392;10.836;2022-12-16T15:10:26;2.50;99.90
6114;DHT22;3087;48.392;10.836;2022-12-16T15:13:16;2.50;99.90
6114;DHT22;3087;48.392;10.836;2022-12-16T15:16:02;2.40;99.90
6114;DHT22;3087;48.392;10.836;2022-12-16T15:18:52;2.40;99.90
6114;DHT22;3087;48.392;10.836;2022-12-16T15:21:38;2.40;99.90
6114;DHT22;3087;48.392;10.836;2022-12-16T15:24:23;2.40;99.90
6114;DHT22;3087;48.392;10.836;2022-12-16T15:27:25;2.40;99.90
6114;DHT22;3087;48.392;10.836;2022-12-16T15:30:42;2.40;99.90
6114;DHT22;3087;48.392;10.836;2022-12-16T15:33:29;2.50;99.90
6114;DHT22;3087;48.392;10.836;2022-12-16T15:36:35;2.40;99.90
6114;DHT22;3087;48.392;10.836;2022-12-16T15:39:23;2.40;99.90
6114;DHT22;3087;48.392;10.836;2022-12-16T15:42:30;2.40;99.90
6114;DHT22;3087;48.392;10.836;2022-12-16T15:45:16;2.40;99.90
6114;DHT22;3087;48.392;10.836;2022-12-16T15:48:12;2.50;99.90
6114;DHT22;3087;48.392;10.836;2022-12-16T15:51:00;2.50;99.90
6114;DHT22;3087;48.392;10.836;2022-12-16T15:53:44;2.50;99.90
6114;DHT22;3087;48.392;10.836;2022-12-16T15:56:43;2.50;99.90
6114;DHT22;3087;48.392;10.836;2022-12-16T15:59:30;2.50;99.90
6114;DHT22;3087;48.392;10.836;2022-12-16T16:02:21;2.40;99.90
6114;DHT22;3087;48.392;10.836;2022-12-16T16:05:13;2.40;99.90
6114;DHT22;3087;48.392;10.836;2022-12-16T16:07:58;2.40;99.90
6114;DHT22;3087;48.392;10.836;2022-12-16T16:10:43;2.30;99.90
6114;DHT22;3087;48.392;10.836;2022-12-16T16:13:28;2.30;99.90
6114;DHT22;3087;48.392;10.836;2022-12-16T16:16:13;2.30;99.90
6114;DHT22;3087;48.392;10.836;2022-12-16T16:18:58;2.30;99.90
6114;DHT22;3087;48.392;10.836;2022-12-16T16:21:42;2.20;99.90
6114;DHT22;3087;48.392;10.836;2022-12-16T16:24:26;2.30;99.90
6114;DHT22;3087;48.392;10.836;2022-12-16T16:27:12;2.30;99.90
6114;DHT22;3087;48.392;10.836;2022-12-16T16:29:57;2.20;99.90
6114;DHT22;3087;48.392;10.836;2022-12-16T16:32:58;2.20;99.90
6114;DHT22;3087;48.392;10.836;2022-12-16T16:35:43;2.20;99.90
6114;DHT22;3087;48.392;10.836;2022-12-16T16:38:27;2.10;99.90
6114;DHT22;3087;48.392;10.836;2022-12-16T16:41:14;2.10;99.90
6114;DHT22;3087;48.392;10.836;2022-12-16T16:43:59;2.20;99.90
6114;DHT22;3087;48.392;10.836;2022-12-16T16:46:44;2.10;99.90
6114;DHT22;3087;48.392;10.836;2022-12-16T16:49:32;2.10;99.90
6114;DHT22;3087;48.392;10.836;2022-12-16T16:52:31;2.10;99.90
6114;DHT22;3087;48.392;10.836;2022-12-16T16:55:18;2.10;99.90
6114;DHT22;3087;48.392;10.836;2022-12-16T16:58:07;2.10;99.90
6114;DHT22;3087;48.392;10.836;2022-12-16T17:00:53;2.10;99.90
6114;DHT22;3087;48.392;10.836;2022-12-16T17:03:37;2.10;99.90
6114;DHT22;3087;48.392;10.836;2022-12-16T17:06:22;2.00;99.90
6114;DHT22;3087;48.392;10.836;2022-12-16T17:09:06;2.00;99.90
6114;DHT22;3087;48.392;10.836;2022-12-16T17:11:50;2.00;99.90
6114;DHT22;3087;48.392;10.836;2022-12-16T17:14:34;2.10;99.90
6114;DHT22;3087;48.392;10.836;2022-12-16T17:17:18;1.90;99.90
6114;DHT22;3087;48.392;10.836;2022-12-16T17:20:02;2.00;99.90
6114;DHT22;3087;48.392;10.836;2022-12-16T17:22:46;2.00;99.90
6114;DHT22;3087;48.392;10.836;2022-12-16T17:25:30;2.00;99.90
6114;DHT22;3087;48.392;10.836;2022-12-16T17:28:14;2.00;99.90
6114;DHT22;3087;48.392;10.836;2022-12-16T17:30:58;2.00;99.90
6114;DHT22;3087;48.392;10.836;2022-12-16T17:33:43;2.00;99.90
6114;DHT22;3087;48.392;10.836;2022-12-16T17:36:27;2.00;99.90
6114;DHT22;3087;48.392;10.836;2022-12-16T17:39:11;2.00;99.90
6114;DHT22;3087;48.392;10.836;2022-12-16T17:41:55;1.90;99.90
6114;DHT22;3087;48.392;10.836;2022-12-16T17:44:40;1.90;99.90
6114;DHT22;3087;48.392;10.836;2022-12-16T17:47:24;2.00;99.90
6114;DHT22;3087;48.392;10.836;2022-12-16T17:52:57;1.90;99.90
6114;DHT22;3087;48.392;10.836;2022-12-16T17:55:41;1.90;99.90
6114;DHT22;3087;48.392;10.836;2022-12-16T17:58:35;1.90;99.90
6114;DHT22;3087;48.392;10.836;2022-12-16T18:01:20;2.00;99.90
6114;DHT22;3087;48.392;10.836;2022-12-16T18:04:04;2.00;99.90
6114;DHT22;3087;48.392;10.836;2022-12-16T18:06:49;2.00;99.90
6114;DHT22;3087;48.392;10.836;2022-12-16T18:09:33;2.00;99.90
6114;DHT22;3087;48.392;10.836;2022-12-16T18:12:17;2.00;99.90
6114;DHT22;3087;48.392;10.836;2022-12-16T18:15:00;1.90;99.90
6114;DHT22;3087;48.392;10.836;2022-12-16T18:17:47;1.90;99.90
6114;DHT22;3087;48.392;10.836;2022-12-16T18:23:30;1.90;99.90
6114;DHT22;3087;48.392;10.836;2022-12-16T18:26:15;1.90;99.90
6114;DHT22;3087;48.392;10.836;2022-12-16T18:29:00;1.90;99.90
6114;DHT22;3087;48.392;10.836;2022-12-16T18:31:47;1.90;99.90
6114;DHT22;3087;48.392;10.836;2022-12-16T18:34:31;1.90;99.90
6114;DHT22;3087;48.392;10.836;2022-12-16T18:37:15;1.80;99.90
6114;DHT22;3087;48.392;10.836;2022-12-16T18:39:59;1.90;99.90
6114;DHT22;3087;48.392;10.836;2022-12-16T18:42:43;1.80;99.90
6114;DHT22;3087;48.392;10.836;2022-12-16T18:45:27;1.80;99.90
6114;DHT22;3087;48.392;10.836;2022-12-16T18:48:11;1.80;99.90
6114;DHT22;3087;48.392;10.836;2022-12-16T18:51:12;1.90;99.90
6114;DHT22;3087;48.392;10.836;2022-12-16T18:53:56;1.90;99.90
6114;DHT22;3087;48.392;10.836;2022-12-16T18:56:41;1.80;99.90
6114;DHT22;3087;48.392;10.836;2022-12-16T18:59:25;1.80;99.90
6114;DHT22;3087;48.392;10.836;2022-12-16T19:02:09;1.80;99.90
6114;DHT22;3087;48.392;10.836;2022-12-16T19:04:53;1.90;99.90
6114;DHT22;3087;48.392;10.836;2022-12-16T19:07:39;1.90;99.90
6114;DHT22;3087;48.392;10.836;2022-12-16T19:10:30;1.90;99.90
6114;DHT22;3087;48.392;10.836;2022-12-16T19:13:15;2.00;99.90
6114;DHT22;3087;48.392;10.836;2022-12-16T19:15:59;1.90;99.90
6114;DHT22;3087;48.392;10.836;2022-12-16T19:18:51;1.90;99.90
6114;DHT22;3087;48.392;10.836;2022-12-16T19:21:35;1.90;99.90
6114;DHT22;3087;48.392;10.836;2022-12-16T19:24:19;1.90;99.90
6114;DHT22;3087;48.392;10.836;2022-12-16T19:29:48;1.90;99.90
6114;DHT22;3087;48.392;10.836;2022-12-16T19:32:32;1.80;99.90
6114;DHT22;3087;48.392;10.836;2022-12-16T19:35:16;1.80;99.90
6114;DHT22;3087;48.392;10.836;2022-12-16T19:38:00;1.80;99.90
6114;DHT22;3087;48.392;10.836;2022-12-16T19:40:53;1.80;99.90
6114;DHT22;3087;48.392;10.836;2022-12-16T19:46:22;1.90;99.90
6114;DHT22;3087;48.392;10.836;2022-12-16T19:49:06;1.90;99.90
6114;DHT22;3087;48.392;10.836;2022-12-16T19:51:50;1.90;99.90
6114;DHT22;3087;48.392;10.836;2022-12-16T19:57:18;1.80;99.90
6114;DHT22;3087;48.392;10.836;2022-12-16T20:00:04;1.90;99.90
6114;DHT22;3087;48.392;10.836;2022-12-16T20:02:48;1.90;99.90
6114;DHT22;3087;48.392;10.836;2022-12-16T20:11:06;1.80;99.90
6114;DHT22;3087;48.392;10.836;2022-12-16T20:13:52;1.80;99.90
6114;DHT22;3087;48.392;10.836;2022-12-16T20:16:37;1.90;99.90
6114;DHT22;3087;48.392;10.836;2022-12-16T20:19:21;1.90;99.90
6114;DHT22;3087;48.392;10.836;2022-12-16T20:22:05;1.80;99.90
6114;DHT22;3087;48.392;10.836;2022-12-16T20:24:49;1.80;99.90
6114;DHT22;3087;48.392;10.836;2022-12-16T20:27:34;1.80;99.90
6114;DHT22;3087;48.392;10.836;2022-12-16T20:30:18;1.70;99.90
6114;DHT22;3087;48.392;10.836;2022-12-16T20:33:02;1.70;99.90
6114;DHT22;3087;48.392;10.836;2022-12-16T20:36:01;1.70;99.90
6114;DHT22;3087;48.392;10.836;2022-12-16T20:38:46;1.80;99.90
6114;DHT22;3087;48.392;10.836;2022-12-16T20:41:30;1.80;99.90
6114;DHT22;3087;48.392;10.836;2022-12-16T20:44:15;1.80;99.90
6114;DHT22;3087;48.392;10.836;2022-12-16T20:46:59;1.70;99.90
6114;DHT22;3087;48.392;10.836;2022-12-16T20:49:43;1.70;99.90
6114;DHT22;3087;48.392;10.836;2022-12-16T20:55:12;1.70;99.90
6114;DHT22;3087;48.392;10.836;2022-12-16T20:57:56;1.80;99.90
6114;DHT22;3087;48.392;10.836;2022-12-16T21:06:09;1.80;99.90
6114;DHT22;3087;48.392;10.836;2022-12-16T21:08:53;1.80;99.90
6114;DHT22;3087;48.392;10.836;2022-12-16T21:11:37;1.80;99.90
6114;DHT22;3087;48.392;10.836;2022-12-16T21:14:22;1.80;99.90
6114;DHT22;3087;48.392;10.836;2022-12-16T21:17:06;1.80;99.90
6114;DHT22;3087;48.392;10.836;2022-12-16T21:19:50;1.80;99.90
6114;DHT22;3087;48.392;10.836;2022-12-16T21:22:34;1.70;99.90
6114;DHT22;3087;48.392;10.836;2022-12-16T21:25:18;1.70;99.90
6114;DHT22;3087;48.392;10.836;2022-12-16T21:28:02;1.70;99.90
6114;DHT22;3087;48.392;10.836;2022-12-16T21:39:00;1.70;99.90